sensor_id;sensor_type;location;lat;lon;timestamp;pressure;altitude;pressure_sealevel;temperature;humidity
62031;BME280;62035;52.094;5.112;2022-09-09T00:00:46;100833.19;;;17.81;100.00
62031;BME280;62035;52.094;5.112;2022-09-09T00:03:18;100820.50;;;17.47;100.00
62031;BME280;62035;52.094;5.112;2022-09-09T00:05:57;100832.09;;;17.48;100.00
62031;BME280;62035;52.094;5.112;2022-09-09T00:08:38;100828.81;;;17.52;100.00
62031;BME280;62035;52.094;5.112;2022-09-09T00:11:20;100831.31;;;17.54;100.00
62031;BME280;62035;52.094;5.112;2022-09-09T00:13:56;100828.66;;;17.32;100.00
62031;BME280;62035;52.094;5.112;2022-09-09T00:16:32;100824.22;;;17.46;100.00
62031;BME280;62035;52.094;5.112;2022-09-09T00:19:10;100825.31;;;17.30;100.00
62031;BME280;62035;52.094;5.112;2022-09-09T00:21:47;100825.16;;;17.11;100.00
62031;BME280;62035;52.094;5.112;2022-09-09T00:24:27;100826.34;;;17.29;100.00
62031;BME280;62035;52.094;5.112;2022-09-09T00:27:07;100832.81;;;17.35;100.00
62031;BME280;62035;52.094;5.112;2022-09-09T00:29:43;100817.75;;;17.41;100.00
62031;BME280;62035;52.094;5.112;2022-09-09T00:32:16;100818.28;;;17.29;100.00
62031;BME280;62035;52.094;5.112;2022-09-09T00:34:48;100819.41;;;17.42;100.00
62031;BME280;62035;52.094;5.112;2022-09-09T00:37:20;100809.72;;;17.19;100.00
62031;BME280;62035;52.094;5.112;2022-09-09T00:39:53;100813.66;;;17.23;100.00
62031;BME280;62035;52.094;5.112;2022-09-09T00:42:36;100817.16;;;17.17;100.00
62031;BME280;62035;52.094;5.112;2022-09-09T00:45:25;100822.47;;;17.11;100.00
62031;BME280;62035;52.094;5.112;2022-09-09T00:48:13;100822.72;;;17.16;100.00
62031;BME280;62035;52.094;5.112;2022-09-09T00:50:48;100823.09;;;17.13;100.00
62031;BME280;62035;52.094;5.112;2022-09-09T00:53:30;100827.66;;;17.12;100.00
62031;BME280;62035;52.094;5.112;2022-09-09T00:56:12;100828.19;;;16.86;100.00
62031;BME280;62035;52.094;5.112;2022-09-09T00:58:47;100827.25;;;16.94;100.00
62031;BME280;62035;52.094;5.112;2022-09-09T01:01:29;100823.56;;;16.80;100.00
62031;BME280;62035;52.094;5.112;2022-09-09T01:03:57;100822.34;;;16.83;100.00
62031;BME280;62035;52.094;5.112;2022-09-09T01:06:30;100814.56;;;16.88;100.00
62031;BME280;62035;52.094;5.112;2022-09-09T01:09:07;100810.53;;;16.98;100.00
62031;BME280;62035;52.094;5.112;2022-09-09T01:11:51;100816.09;;;16.76;100.00
62031;BME280;62035;52.094;5.112;2022-09-09T01:14:40;100816.75;;;16.63;100.00
62031;BME280;62035;52.094;5.112;2022-09-09T01:17:15;100820.38;;;16.55;100.00
62031;BME280;62035;52.094;5.112;2022-09-09T01:19:55;100822.13;;;16.63;100.00
62031;BME280;62035;52.094;5.112;2022-09-09T01:22:35;100821.66;;;16.59;100.00
62031;BME280;62035;52.094;5.112;2022-09-09T01:25:22;100814.63;;;16.58;100.00
62031;BME280;62035;52.094;5.112;2022-09-09T01:28:00;100822.78;;;16.50;100.00
62031;BME280;62035;52.094;5.112;2022-09-09T01:30:39;100821.97;;;16.50;100.00
62031;BME280;62035;52.094;5.112;2022-09-09T01:33:13;100818.63;;;16.48;100.00
62031;BME280;62035;52.094;5.112;2022-09-09T01:35:46;100825.41;;;16.44;100.00
62031;BME280;62035;52.094;5.112;2022-09-09T01:38:21;100817.66;;;16.34;100.00
62031;BME280;62035;52.094;5.112;2022-09-09T01:40:51;100811.28;;;16.56;100.00
62031;BME280;62035;52.094;5.112;2022-09-09T01:43:22;100802.31;;;16.49;100.00
62031;BME280;62035;52.094;5.112;2022-09-09T01:45:52;100803.06;;;16.43;100.00
62031;BME280;62035;52.094;5.112;2022-09-09T01:48:23;100807.00;;;16.26;100.00
62031;BME280;62035;52.094;5.112;2022-09-09T01:50:52;100795.25;;;16.27;100.00
62031;BME280;62035;52.094;5.112;2022-09-09T01:53:20;100795.06;;;16.28;100.00
62031;BME280;62035;52.094;5.112;2022-09-09T01:55:57;100795.34;;;16.19;100.00
62031;BME280;62035;52.094;5.112;2022-09-09T01:58:39;100797.84;;;16.20;100.00
62031;BME280;62035;52.094;5.112;2022-09-09T02:01:26;100790.44;;;16.22;100.00
62031;BME280;62035;52.094;5.112;2022-09-09T02:04:07;100799.31;;;16.08;100.00
62031;BME280;62035;52.094;5.112;2022-09-09T02:06:45;100794.03;;;16.00;100.00
62031;BME280;62035;52.094;5.112;2022-09-09T02:09:18;100802.03;;;15.93;100.00
62031;BME280;62035;52.094;5.112;2022-09-09T02:11:52;100800.38;;;15.92;100.00
62031;BME280;62035;52.094;5.112;2022-09-09T02:14:34;100802.22;;;15.92;100.00
62031;BME280;62035;52.094;5.112;2022-09-09T02:17:09;100789.78;;;16.06;100.00
62031;BME280;62035;52.094;5.112;2022-09-09T02:19:42;100797.31;;;15.95;100.00
62031;BME280;62035;52.094;5.112;2022-09-09T02:22:17;100793.03;;;16.01;100.00
62031;BME280;62035;52.094;5.112;2022-09-09T02:24:50;100799.16;;;16.10;100.00
62031;BME280;62035;52.094;5.112;2022-09-09T02:27:22;100793.69;;;16.18;100.00
62031;BME280;62035;52.094;5.112;2022-09-09T02:29:53;100792.84;;;16.32;100.00
62031;BME280;62035;52.094;5.112;2022-09-09T02:32:24;100790.25;;;16.09;100.00
62031;BME280;62035;52.094;5.112;2022-09-09T02:34:55;100787.19;;;16.12;100.00
62031;BME280;62035;52.094;5.112;2022-09-09T02:37:32;100790.25;;;16.09;100.00
62031;BME280;62035;52.094;5.112;2022-09-09T02:40:06;100785.63;;;16.03;100.00
62031;BME280;62035;52.094;5.112;2022-09-09T02:42:38;100781.69;;;15.99;100.00
62031;BME280;62035;52.094;5.112;2022-09-09T02:45:10;100783.78;;;16.04;100.00
62031;BME280;62035;52.094;5.112;2022-09-09T02:47:47;100781.47;;;16.00;100.00
62031;BME280;62035;52.094;5.112;2022-09-09T02:50:29;100776.09;;;16.15;100.00
62031;BME280;62035;52.094;5.112;2022-09-09T02:53:06;100772.75;;;16.13;100.00
62031;BME280;62035;52.094;5.112;2022-09-09T02:55:45;100778.69;;;16.23;100.00
62031;BME280;62035;52.094;5.112;2022-09-09T02:58:17;100774.50;;;16.21;100.00
62031;BME280;62035;52.094;5.112;2022-09-09T03:00:48;100777.22;;;16.42;100.00
62031;BME280;62035;52.094;5.112;2022-09-09T03:03:17;100778.25;;;16.41;100.00
62031;BME280;62035;52.094;5.112;2022-09-09T03:05:47;100774.31;;;16.37;100.00
62031;BME280;62035;52.094;5.112;2022-09-09T03:08:16;100770.06;;;16.28;100.00
62031;BME280;62035;52.094;5.112;2022-09-09T03:10:44;100771.75;;;16.14;100.00
62031;BME280;62035;52.094;5.112;2022-09-09T03:13:11;100766.56;;;16.13;100.00
62031;BME280;62035;52.094;5.112;2022-09-09T03:15:41;100765.91;;;16.11;100.00
62031;BME280;62035;52.094;5.112;2022-09-09T03:18:10;100762.31;;;16.04;100.00
62031;BME280;62035;52.094;5.112;2022-09-09T03:20:38;100778.06;;;15.77;100.00
62031;BME280;62035;52.094;5.112;2022-09-09T03:23:08;100761.38;;;15.67;100.00
62031;BME280;62035;52.094;5.112;2022-09-09T03:25:36;100775.09;;;15.72;100.00
62031;BME280;62035;52.094;5.112;2022-09-09T03:28:04;100783.78;;;15.74;100.00
62031;BME280;62035;52.094;5.112;2022-09-09T03:30:32;100778.78;;;15.71;100.00
62031;BME280;62035;52.094;5.112;2022-09-09T03:33:00;100774.34;;;15.63;100.00
62031;BME280;62035;52.094;5.112;2022-09-09T03:35:28;100774.44;;;15.70;100.00
62031;BME280;62035;52.094;5.112;2022-09-09T03:37:56;100775.44;;;15.54;100.00
62031;BME280;62035;52.094;5.112;2022-09-09T03:40:23;100769.78;;;15.49;100.00
62031;BME280;62035;52.094;5.112;2022-09-09T03:42:52;100775.75;;;15.59;100.00
62031;BME280;62035;52.094;5.112;2022-09-09T03:45:19;100777.28;;;15.54;100.00
62031;BME280;62035;52.094;5.112;2022-09-09T03:47:47;100776.66;;;15.66;100.00
62031;BME280;62035;52.094;5.112;2022-09-09T03:50:15;100777.19;;;15.62;100.00
62031;BME280;62035;52.094;5.112;2022-09-09T03:52:45;100772.56;;;15.56;100.00
62031;BME280;62035;52.094;5.112;2022-09-09T03:55:13;100770.81;;;15.63;100.00
62031;BME280;62035;52.094;5.112;2022-09-09T03:57:41;100770.09;;;15.69;100.00
62031;BME280;62035;52.094;5.112;2022-09-09T04:00:09;100768.72;;;15.58;100.00
62031;BME280;62035;52.094;5.112;2022-09-09T04:02:37;100774.91;;;15.59;100.00
62031;BME280;62035;52.094;5.112;2022-09-09T04:05:06;100769.41;;;15.52;100.00
62031;BME280;62035;52.094;5.112;2022-09-09T04:07:34;100764.97;;;15.45;100.00
62031;BME280;62035;52.094;5.112;2022-09-09T04:10:03;100758.56;;;15.46;100.00
62031;BME280;62035;52.094;5.112;2022-09-09T04:12:31;100755.91;;;15.60;100.00
62031;BME280;62035;52.094;5.112;2022-09-09T04:15:00;100756.13;;;15.59;100.00
62031;BME280;62035;52.094;5.112;2022-09-09T04:17:29;100759.44;;;15.61;100.00
62031;BME280;62035;52.094;5.112;2022-09-09T04:19:56;100748.91;;;15.59;100.00
62031;BME280;62035;52.094;5.112;2022-09-09T04:22:24;100757.97;;;15.58;100.00
62031;BME280;62035;52.094;5.112;2022-09-09T04:24:51;100753.97;;;15.54;100.00
62031;BME280;62035;52.094;5.112;2022-09-09T04:27:20;100749.50;;;15.47;100.00
62031;BME280;62035;52.094;5.112;2022-09-09T04:29:48;100750.84;;;15.65;100.00
62031;BME280;62035;52.094;5.112;2022-09-09T04:32:15;100743.41;;;15.53;100.00
62031;BME280;62035;52.094;5.112;2022-09-09T04:34:43;100739.44;;;15.49;100.00
62031;BME280;62035;52.094;5.112;2022-09-09T04:37:11;100732.03;;;15.51;100.00
62031;BME280;62035;52.094;5.112;2022-09-09T04:39:38;100728.19;;;15.68;100.00
62031;BME280;62035;52.094;5.112;2022-09-09T04:42:06;100730.56;;;15.63;100.00
62031;BME280;62035;52.094;5.112;2022-09-09T04:44:35;100743.16;;;15.62;100.00
62031;BME280;62035;52.094;5.112;2022-09-09T04:47:02;100738.91;;;15.68;100.00
62031;BME280;62035;52.094;5.112;2022-09-09T04:49:30;100739.72;;;15.54;100.00
62031;BME280;62035;52.094;5.112;2022-09-09T04:51:58;100741.06;;;15.58;100.00
62031;BME280;62035;52.094;5.112;2022-09-09T04:54:25;100744.19;;;15.61;100.00
62031;BME280;62035;52.094;5.112;2022-09-09T04:56:53;100739.00;;;15.60;100.00
62031;BME280;62035;52.094;5.112;2022-09-09T04:59:21;100742.31;;;15.62;100.00
62031;BME280;62035;52.094;5.112;2022-09-09T05:01:50;100715.91;;;15.59;100.00
62031;BME280;62035;52.094;5.112;2022-09-09T05:04:20;100730.88;;;15.68;100.00
62031;BME280;62035;52.094;5.112;2022-09-09T05:06:47;100732.44;;;15.62;100.00
62031;BME280;62035;52.094;5.112;2022-09-09T05:09:15;100724.09;;;15.72;100.00
62031;BME280;62035;52.094;5.112;2022-09-09T05:11:43;100731.06;;;15.81;100.00
62031;BME280;62035;52.094;5.112;2022-09-09T05:14:10;100725.78;;;15.73;100.00
62031;BME280;62035;52.094;5.112;2022-09-09T05:16:38;100718.91;;;15.56;100.00
62031;BME280;62035;52.094;5.112;2022-09-09T05:19:07;100727.66;;;15.58;100.00
62031;BME280;62035;52.094;5.112;2022-09-09T05:21:35;100730.88;;;15.68;100.00
62031;BME280;62035;52.094;5.112;2022-09-09T05:24:03;100732.16;;;15.72;100.00
62031;BME280;62035;52.094;5.112;2022-09-09T05:26:31;100736.97;;;15.77;100.00
62031;BME280;62035;52.094;5.112;2022-09-09T05:28:58;100731.41;;;15.93;100.00
62031;BME280;62035;52.094;5.112;2022-09-09T05:31:26;100723.19;;;15.94;100.00
62031;BME280;62035;52.094;5.112;2022-09-09T05:33:54;100722.91;;;15.89;100.00
62031;BME280;62035;52.094;5.112;2022-09-09T05:36:23;100714.03;;;15.89;100.00
62031;BME280;62035;52.094;5.112;2022-09-09T05:38:50;100710.13;;;15.91;100.00
62031;BME280;62035;52.094;5.112;2022-09-09T05:41:19;100727.22;;;16.05;100.00
62031;BME280;62035;52.094;5.112;2022-09-09T05:43:49;100729.34;;;16.10;100.00
62031;BME280;62035;52.094;5.112;2022-09-09T05:46:17;100715.47;;;16.06;100.00
62031;BME280;62035;52.094;5.112;2022-09-09T05:48:48;100729.81;;;16.13;100.00
62031;BME280;62035;52.094;5.112;2022-09-09T05:51:18;100727.38;;;16.33;100.00
62031;BME280;62035;52.094;5.112;2022-09-09T05:53:50;100731.72;;;16.34;100.00
62031;BME280;62035;52.094;5.112;2022-09-09T05:56:19;100730.41;;;16.30;100.00
62031;BME280;62035;52.094;5.112;2022-09-09T05:58:49;100732.38;;;16.21;100.00
62031;BME280;62035;52.094;5.112;2022-09-09T06:01:21;100726.56;;;16.18;100.00
62031;BME280;62035;52.094;5.112;2022-09-09T06:03:51;100724.22;;;16.29;100.00
62031;BME280;62035;52.094;5.112;2022-09-09T06:06:20;100730.09;;;16.40;100.00
62031;BME280;62035;52.094;5.112;2022-09-09T06:08:52;100723.91;;;16.39;100.00
62031;BME280;62035;52.094;5.112;2022-09-09T06:11:23;100724.16;;;16.44;100.00
62031;BME280;62035;52.094;5.112;2022-09-09T06:13:53;100733.75;;;16.53;100.00
62031;BME280;62035;52.094;5.112;2022-09-09T06:16:22;100723.06;;;16.75;100.00
62031;BME280;62035;52.094;5.112;2022-09-09T06:18:52;100725.19;;;16.79;100.00
62031;BME280;62035;52.094;5.112;2022-09-09T06:21:21;100721.50;;;16.87;100.00
62031;BME280;62035;52.094;5.112;2022-09-09T06:23:52;100718.56;;;16.82;100.00
62031;BME280;62035;52.094;5.112;2022-09-09T06:26:21;100721.25;;;17.03;100.00
62031;BME280;62035;52.094;5.112;2022-09-09T06:28:52;100711.66;;;17.22;100.00
62031;BME280;62035;52.094;5.112;2022-09-09T06:31:22;100716.06;;;17.29;100.00
62031;BME280;62035;52.094;5.112;2022-09-09T06:33:53;100712.34;;;17.30;100.00
62031;BME280;62035;52.094;5.112;2022-09-09T06:36:22;100709.16;;;17.20;100.00
62031;BME280;62035;52.094;5.112;2022-09-09T06:38:52;100708.69;;;17.38;100.00
62031;BME280;62035;52.094;5.112;2022-09-09T06:41:22;100702.22;;;17.32;100.00
62031;BME280;62035;52.094;5.112;2022-09-09T06:43:52;100710.78;;;17.43;100.00
62031;BME280;62035;52.094;5.112;2022-09-09T06:46:22;100704.75;;;17.41;100.00
62031;BME280;62035;52.094;5.112;2022-09-09T06:48:54;100699.41;;;17.75;100.00
62031;BME280;62035;52.094;5.112;2022-09-09T06:51:26;100697.34;;;17.77;100.00
62031;BME280;62035;52.094;5.112;2022-09-09T06:53:57;100699.00;;;18.32;100.00
62031;BME280;62035;52.094;5.112;2022-09-09T06:56:27;100688.53;;;18.64;100.00
62031;BME280;62035;52.094;5.112;2022-09-09T06:58:58;100680.22;;;19.05;100.00
62031;BME280;62035;52.094;5.112;2022-09-09T07:01:27;100677.75;;;18.97;100.00
62031;BME280;62035;52.094;5.112;2022-09-09T07:03:58;100685.84;;;18.77;100.00
62031;BME280;62035;52.094;5.112;2022-09-09T07:06:29;100685.41;;;19.13;100.00
62031;BME280;62035;52.094;5.112;2022-09-09T07:09:00;100684.13;;;19.36;100.00
62031;BME280;62035;52.094;5.112;2022-09-09T07:11:32;100674.53;;;19.59;100.00
62031;BME280;62035;52.094;5.112;2022-09-09T07:14:01;100683.72;;;19.39;100.00
62031;BME280;62035;52.094;5.112;2022-09-09T07:16:29;100681.22;;;19.57;100.00
62031;BME280;62035;52.094;5.112;2022-09-09T07:18:57;100661.38;;;19.83;100.00
62031;BME280;62035;52.094;5.112;2022-09-09T07:21:27;100661.88;;;20.05;100.00
62031;BME280;62035;52.094;5.112;2022-09-09T07:23:56;100663.94;;;20.09;100.00
62031;BME280;62035;52.094;5.112;2022-09-09T07:26:27;100664.72;;;20.23;100.00
62031;BME280;62035;52.094;5.112;2022-09-09T07:28:56;100666.66;;;20.09;100.00
62031;BME280;62035;52.094;5.112;2022-09-09T07:31:25;100659.91;;;19.87;100.00
62031;BME280;62035;52.094;5.112;2022-09-09T07:33:59;100666.22;;;19.61;100.00
62031;BME280;62035;52.094;5.112;2022-09-09T07:36:29;100672.81;;;19.78;100.00
62031;BME280;62035;52.094;5.112;2022-09-09T07:39:02;100660.28;;;19.97;100.00
62031;BME280;62035;52.094;5.112;2022-09-09T07:41:33;100672.47;;;20.06;100.00
62031;BME280;62035;52.094;5.112;2022-09-09T07:44:04;100671.16;;;20.22;100.00
62031;BME280;62035;52.094;5.112;2022-09-09T07:46:34;100676.34;;;19.79;100.00
62031;BME280;62035;52.094;5.112;2022-09-09T07:49:02;100675.34;;;19.73;100.00
62031;BME280;62035;52.094;5.112;2022-09-09T07:51:32;100678.69;;;19.62;100.00
62031;BME280;62035;52.094;5.112;2022-09-09T07:54:05;100686.00;;;19.55;100.00
62031;BME280;62035;52.094;5.112;2022-09-09T07:56:35;100678.03;;;19.67;100.00
62031;BME280;62035;52.094;5.112;2022-09-09T07:59:04;100688.91;;;19.53;100.00
62031;BME280;62035;52.094;5.112;2022-09-09T08:01:34;100682.47;;;19.35;100.00
62031;BME280;62035;52.094;5.112;2022-09-09T08:04:06;100681.84;;;19.39;100.00
62031;BME280;62035;52.094;5.112;2022-09-09T08:06:37;100692.53;;;19.85;100.00
62031;BME280;62035;52.094;5.112;2022-09-09T08:09:09;100683.03;;;19.63;100.00
62031;BME280;62035;52.094;5.112;2022-09-09T08:11:38;100693.44;;;19.46;100.00
62031;BME280;62035;52.094;5.112;2022-09-09T08:14:07;100675.81;;;19.57;100.00
62031;BME280;62035;52.094;5.112;2022-09-09T08:16:38;100677.22;;;19.59;100.00
62031;BME280;62035;52.094;5.112;2022-09-09T08:19:07;100672.28;;;19.50;100.00
62031;BME280;62035;52.094;5.112;2022-09-09T08:21:37;100688.44;;;19.70;100.00
62031;BME280;62035;52.094;5.112;2022-09-09T08:24:09;100679.72;;;19.68;100.00
62031;BME280;62035;52.094;5.112;2022-09-09T08:26:39;100680.59;;;19.28;100.00
62031;BME280;62035;52.094;5.112;2022-09-09T08:29:10;100693.88;;;19.50;100.00
62031;BME280;62035;52.094;5.112;2022-09-09T08:31:41;100690.84;;;19.97;100.00
62031;BME280;62035;52.094;5.112;2022-09-09T08:34:10;100688.22;;;19.71;100.00
62031;BME280;62035;52.094;5.112;2022-09-09T08:36:40;100698.16;;;19.84;100.00
62031;BME280;62035;52.094;5.112;2022-09-09T08:39:11;100687.13;;;19.92;100.00
62031;BME280;62035;52.094;5.112;2022-09-09T08:42:00;100700.94;;;19.57;100.00
62031;BME280;62035;52.094;5.112;2022-09-09T08:44:48;100696.38;;;19.51;100.00
62031;BME280;62035;52.094;5.112;2022-09-09T08:47:35;100699.81;;;19.78;100.00
62031;BME280;62035;52.094;5.112;2022-09-09T08:50:20;100694.19;;;19.86;100.00
62031;BME280;62035;52.094;5.112;2022-09-09T08:52:57;100700.31;;;20.07;100.00
62031;BME280;62035;52.094;5.112;2022-09-09T08:55:37;100695.97;;;20.06;100.00
62031;BME280;62035;52.094;5.112;2022-09-09T08:58:13;100702.53;;;19.78;100.00
62031;BME280;62035;52.094;5.112;2022-09-09T09:00:57;100707.91;;;19.91;100.00
62031;BME280;62035;52.094;5.112;2022-09-09T09:03:43;100699.09;;;20.03;100.00
62031;BME280;62035;52.094;5.112;2022-09-09T09:06:29;100701.44;;;19.92;100.00
62031;BME280;62035;52.094;5.112;2022-09-09T09:09:18;100707.88;;;19.98;100.00
62031;BME280;62035;52.094;5.112;2022-09-09T09:11:54;100699.84;;;19.72;100.00
62031;BME280;62035;52.094;5.112;2022-09-09T09:14:28;100694.19;;;19.86;100.00
62031;BME280;62035;52.094;5.112;2022-09-09T09:17:02;100705.75;;;20.00;100.00
62031;BME280;62035;52.094;5.112;2022-09-09T09:19:33;100704.47;;;20.09;100.00
62031;BME280;62035;52.094;5.112;2022-09-09T09:22:09;100710.16;;;19.94;100.00
62031;BME280;62035;52.094;5.112;2022-09-09T09:24:49;100713.47;;;19.96;100.00
62031;BME280;62035;52.094;5.112;2022-09-09T09:27:30;100706.13;;;20.10;100.00
62031;BME280;62035;52.094;5.112;2022-09-09T09:30:01;100700.84;;;19.90;100.00
62031;BME280;62035;52.094;5.112;2022-09-09T09:32:41;100717.91;;;19.71;100.00
62031;BME280;62035;52.094;5.112;2022-09-09T09:35:17;100710.00;;;19.83;100.00
62031;BME280;62035;52.094;5.112;2022-09-09T09:37:45;100727.25;;;19.82;100.00
62031;BME280;62035;52.094;5.112;2022-09-09T09:40:14;100755.75;;;19.05;100.00
62031;BME280;62035;52.094;5.112;2022-09-09T09:42:54;100750.75;;;18.89;100.00
62031;BME280;62035;52.094;5.112;2022-09-09T09:45:28;100746.59;;;18.93;100.00
62031;BME280;62035;52.094;5.112;2022-09-09T09:48:02;100745.38;;;18.76;100.00
62031;BME280;62035;52.094;5.112;2022-09-09T09:50:31;100748.47;;;18.73;100.00
62031;BME280;62035;52.094;5.112;2022-09-09T09:53:02;100746.19;;;18.89;100.00
62031;BME280;62035;52.094;5.112;2022-09-09T09:55:35;100740.81;;;18.96;100.00
62031;BME280;62035;52.094;5.112;2022-09-09T09:58:06;100727.53;;;19.08;100.00
62031;BME280;62035;52.094;5.112;2022-09-09T10:00:47;100730.41;;;19.19;100.00
62031;BME280;62035;52.094;5.112;2022-09-09T10:03:25;100727.09;;;19.50;100.00
62031;BME280;62035;52.094;5.112;2022-09-09T10:05:55;100728.69;;;19.84;100.00
62031;BME280;62035;52.094;5.112;2022-09-09T10:08:24;100717.66;;;19.92;100.00
62031;BME280;62035;52.094;5.112;2022-09-09T10:11:17;100738.53;;;19.59;100.00
62031;BME280;62035;52.094;5.112;2022-09-09T10:14:03;100744.13;;;19.24;100.00
62031;BME280;62035;52.094;5.112;2022-09-09T10:16:50;100766.91;;;18.69;100.00
62031;BME280;62035;52.094;5.112;2022-09-09T10:19:30;100764.66;;;18.25;100.00
62031;BME280;62035;52.094;5.112;2022-09-09T10:22:09;100762.75;;;18.67;100.00
62031;BME280;62035;52.094;5.112;2022-09-09T10:25:21;100772.13;;;18.90;100.00
62031;BME280;62035;52.094;5.112;2022-09-09T10:28:14;100752.44;;;19.16;100.00
62031;BME280;62035;52.094;5.112;2022-09-09T10:31:04;100752.00;;;19.39;100.00
62031;BME280;62035;52.094;5.112;2022-09-09T10:33:55;100754.25;;;19.69;100.00
62031;BME280;62035;52.094;5.112;2022-09-09T10:36:34;100744.72;;;19.66;100.00
62031;BME280;62035;52.094;5.112;2022-09-09T10:39:18;100740.22;;;20.11;100.00
62031;BME280;62035;52.094;5.112;2022-09-09T10:42:01;100718.38;;;19.48;100.00
62031;BME280;62035;52.094;5.112;2022-09-09T10:44:49;100738.13;;;19.55;100.00
62031;BME280;62035;52.094;5.112;2022-09-09T10:47:39;100740.75;;;19.75;100.00
62031;BME280;62035;52.094;5.112;2022-09-09T10:50:38;100722.22;;;19.92;100.00
62031;BME280;62035;52.094;5.112;2022-09-09T10:53:20;100718.56;;;20.18;100.00
62031;BME280;62035;52.094;5.112;2022-09-09T10:56:01;100727.84;;;19.90;100.00
62031;BME280;62035;52.094;5.112;2022-09-09T10:58:38;100721.06;;;20.19;100.00
62031;BME280;62035;52.094;5.112;2022-09-09T11:01:13;100707.63;;;20.44;100.00
62031;BME280;62035;52.094;5.112;2022-09-09T11:03:53;100709.78;;;20.29;100.00
62031;BME280;62035;52.094;5.112;2022-09-09T11:06:29;100709.97;;;19.89;100.00
62031;BME280;62035;52.094;5.112;2022-09-09T11:09:02;100718.63;;;20.05;100.00
62031;BME280;62035;52.094;5.112;2022-09-09T11:11:34;100711.41;;;19.92;100.00
62031;BME280;62035;52.094;5.112;2022-09-09T11:14:14;100711.94;;;20.14;100.00
62031;BME280;62035;52.094;5.112;2022-09-09T11:16:49;100705.50;;;20.53;100.00
62031;BME280;62035;52.094;5.112;2022-09-09T11:19:25;100710.31;;;20.06;100.00
62031;BME280;62035;52.094;5.112;2022-09-09T11:21:59;100714.44;;;20.15;100.00
62031;BME280;62035;52.094;5.112;2022-09-09T11:24:35;100707.88;;;20.36;100.00
62031;BME280;62035;52.094;5.112;2022-09-09T11:27:13;100716.72;;;20.12;100.00
62031;BME280;62035;52.094;5.112;2022-09-09T11:30:00;100700.88;;;19.77;100.00
62031;BME280;62035;52.094;5.112;2022-09-09T11:35:58;100708.13;;;19.83;100.00
62031;BME280;62035;52.094;5.112;2022-09-09T11:38:42;100719.44;;;19.54;100.00
62031;BME280;62035;52.094;5.112;2022-09-09T11:41:13;100703.00;;;19.42;100.00
62031;BME280;62035;52.094;5.112;2022-09-09T11:43:43;100713.41;;;19.39;100.00
62031;BME280;62035;52.094;5.112;2022-09-09T11:46:15;100722.75;;;19.29;100.00
62031;BME280;62035;52.094;5.112;2022-09-09T11:48:58;100706.97;;;19.26;100.00
62031;BME280;62035;52.094;5.112;2022-09-09T11:51:29;100710.09;;;18.97;100.00
62031;BME280;62035;52.094;5.112;2022-09-09T11:54:00;100719.41;;;19.21;100.00
62031;BME280;62035;52.094;5.112;2022-09-09T11:56:32;100724.59;;;19.36;100.00
62031;BME280;62035;52.094;5.112;2022-09-09T11:59:19;100730.44;;;19.59;100.00
62031;BME280;62035;52.094;5.112;2022-09-09T12:01:50;100722.06;;;19.67;100.00
62031;BME280;62035;52.094;5.112;2022-09-09T12:04:30;100729.16;;;19.61;100.00
62031;BME280;62035;52.094;5.112;2022-09-09T12:07:20;100732.88;;;19.60;100.00
62031;BME280;62035;52.094;5.112;2022-09-09T12:09:56;100723.47;;;19.89;100.00
62031;BME280;62035;52.094;5.112;2022-09-09T12:12:30;100726.41;;;20.33;100.00
62031;BME280;62035;52.094;5.112;2022-09-09T12:15:15;100720.00;;;20.65;100.00
62031;BME280;62035;52.094;5.112;2022-09-09T12:17:50;100704.25;;;21.12;100.00
62031;BME280;62035;52.094;5.112;2022-09-09T12:20:21;100682.47;;;21.00;100.00
62031;BME280;62035;52.094;5.112;2022-09-09T12:23:02;100691.44;;;21.25;100.00
62031;BME280;62035;52.094;5.112;2022-09-09T12:25:52;100690.81;;;21.23;100.00
62031;BME280;62035;52.094;5.112;2022-09-09T12:28:39;100688.72;;;21.01;100.00
62031;BME280;62035;52.094;5.112;2022-09-09T12:31:16;100697.00;;;21.30;100.00
62031;BME280;62035;52.094;5.112;2022-09-09T12:33:49;100692.44;;;22.04;100.00
62031;BME280;62035;52.094;5.112;2022-09-09T12:36:20;100673.84;;;22.79;100.00
62031;BME280;62035;52.094;5.112;2022-09-09T12:38:53;100653.84;;;23.15;100.00
62031;BME280;62035;52.094;5.112;2022-09-09T12:41:27;100665.16;;;22.89;100.00
62031;BME280;62035;52.094;5.112;2022-09-09T12:44:03;100671.31;;;22.54;100.00
62031;BME280;62035;52.094;5.112;2022-09-09T12:46:36;100653.44;;;22.77;100.00
62031;BME280;62035;52.094;5.112;2022-09-09T12:49:24;100658.97;;;22.70;100.00
62031;BME280;62035;52.094;5.112;2022-09-09T12:51:57;100667.16;;;22.10;100.00
62031;BME280;62035;52.094;5.112;2022-09-09T12:54:27;100665.00;;;22.31;100.00
62031;BME280;62035;52.094;5.112;2022-09-09T12:56:55;100669.06;;;21.73;100.00
62031;BME280;62035;52.094;5.112;2022-09-09T12:59:24;100671.53;;;21.93;100.00
62031;BME280;62035;52.094;5.112;2022-09-09T13:01:56;100674.75;;;22.02;100.00
62031;BME280;62035;52.094;5.112;2022-09-09T13:04:24;100665.31;;;22.22;100.00
62031;BME280;62035;52.094;5.112;2022-09-09T13:06:52;100686.19;;;22.04;100.00
62031;BME280;62035;52.094;5.112;2022-09-09T13:09:20;100678.91;;;21.68;100.00
62031;BME280;62035;52.094;5.112;2022-09-09T13:11:51;100688.75;;;21.99;100.00
62031;BME280;62035;52.094;5.112;2022-09-09T13:14:29;100676.94;;;21.93;100.00
62031;BME280;62035;52.094;5.112;2022-09-09T13:17:02;100653.72;;;22.15;100.00